Time;durP1;ratioP1;P1;durP2;ratioP2;P2;SDS_P1;SDS_P2;PMS_P1;PMS_P2;Temp;Humidity;BMP_temperature;BMP_pressure;BME280_temperature;BME280_humidity;BME280_pressure;Samples;Min_cycle;Max_cycle;Signal;HPM_P1;HPM_P2
2023/09/08 00:00:26;;;;;;;13.60;9.03;;;;;;;;;;5035777;28;20090;-67
2023/09/08 00:02:51;;;;;;;17.47;9.13;;;;;;;;;;5053641;28;20025;-67
2023/09/08 00:05:16;;;;;;;11.33;8.03;;;;;;;;;;5053557;28;20257;-67
2023/09/08 00:07:42;;;;;;;17.80;9.87;;;;;;;;;;5053517;28;20036;-67
2023/09/08 00:10:08;;;;;;;12.25;8.73;;;;;;;;;;5053891;28;20017;-67
2023/09/08 00:12:33;;;;;;;15.65;10.32;;;;;;;;;;5035550;28;20578;-67
2023/09/08 00:14:58;;;;;;;13.70;8.80;;;;;;;;;;5053443;28;20017;-67
2023/09/08 00:17:24;;;;;;;17.60;8.60;;;;;;;;;;5053434;28;20435;-67
2023/09/08 00:19:50;;;;;;;19.83;8.63;;;;;;;;;;5053417;28;20241;-67
2023/09/08 00:22:15;;;;;;;11.85;7.90;;;;;;;;;;5053294;28;20257;-67
2023/09/08 00:24:40;;;;;;;15.30;9.27;;;;;;;;;;5053380;28;20100;-67
2023/09/08 00:27:06;;;;;;;16.67;9.63;;;;;;;;;;5053229;28;20289;-67
2023/09/08 00:29:31;;;;;;;13.67;7.50;;;;;;;;;;5053266;28;20021;-67
2023/09/08 00:31:56;;;;;;;15.57;8.63;;;;;;;;;;5052282;28;20274;-67
2023/09/08 00:34:21;;;;;;;16.23;8.73;;;;;;;;;;5052458;28;20020;-67
2023/09/08 00:36:47;;;;;;;13.67;8.67;;;;;;;;;;5052386;28;20040;-67
2023/09/08 00:39:12;;;;;;;13.77;8.13;;;;;;;;;;5052332;28;20258;-67
2023/09/08 00:41:37;;;;;;;22.13;9.55;;;;;;;;;;5052579;28;20321;-67
2023/09/08 00:44:02;;;;;;;15.33;9.20;;;;;;;;;;5052318;28;20013;-67
2023/09/08 00:46:28;;;;;;;13.68;8.38;;;;;;;;;;5052438;28;20261;-67
2023/09/08 00:48:54;;;;;;;14.48;8.90;;;;;;;;;;5052257;28;20013;-67
2023/09/08 00:51:20;;;;;;;12.65;8.27;;;;;;;;;;5052160;28;20528;-67
2023/09/08 00:53:45;;;;;;;11.75;7.95;;;;;;;;;;5052150;28;20415;-67
2023/09/08 00:56:10;;;;;;;15.27;9.27;;;;;;;;;;5055787;28;20013;-67
2023/09/08 00:58:36;;;;;;;11.77;7.25;;;;;;;;;;5055654;28;20666;-67
2023/09/08 01:01:01;;;;;;;12.48;7.13;;;;;;;;;;5055679;28;20437;-67
2023/09/08 01:03:26;;;;;;;10.73;6.97;;;;;;;;;;5055619;28;20017;-67
2023/09/08 01:05:52;;;;;;;14.67;8.63;;;;;;;;;;5055530;28;20609;-67
2023/09/08 01:08:18;;;;;;;16.92;9.07;;;;;;;;;;5055482;28;20021;-67
2023/09/08 01:10:43;;;;;;;12.10;7.70;;;;;;;;;;5055438;28;20049;-67
2023/09/08 01:13:09;;;;;;;18.77;9.57;;;;;;;;;;5055474;28;20016;-67
2023/09/08 01:15:34;;;;;;;19.17;9.73;;;;;;;;;;5055497;28;20013;-67
2023/09/08 01:17:59;;;;;;;14.17;8.40;;;;;;;;;;5055413;28;20507;-67
2023/09/08 01:20:35;;;;;;;20.63;9.80;;;;;;;;;;5055446;28;20028;-67
2023/09/08 01:23:08;;;;;;;13.65;9.00;;;;;;;;;;5055336;28;20380;-67
2023/09/08 01:25:35;;;;;;;10.55;7.32;;;;;;;;;;5055378;28;20095;-67
2023/09/08 01:28:01;;;;;;;12.13;7.95;;;;;;;;;;5055488;28;20377;-67
2023/09/08 01:30:27;;;;;;;16.13;8.63;;;;;;;;;;5016916;28;1105289;-67
2023/09/08 01:32:53;;;;;;;12.85;8.73;;;;;;;;;;5056704;28;20106;-67
2023/09/08 01:35:19;;;;;;;17.75;8.85;;;;;;;;;;5056458;28;20059;-67
2023/09/08 01:37:45;;;;;;;11.90;7.90;;;;;;;;;;5056388;28;20070;-67
2023/09/08 01:40:10;;;;;;;15.82;9.27;;;;;;;;;;5056292;28;20338;-67
2023/09/08 01:42:36;;;;;;;13.93;8.13;;;;;;;;;;5056529;28;20036;-67
2023/09/08 01:45:01;;;;;;;14.18;8.35;;;;;;;;;;5056280;28;20021;-67
2023/09/08 01:47:27;;;;;;;13.77;8.33;;;;;;;;;;5056094;28;20116;-67
2023/09/08 01:49:52;;;;;;;13.75;9.07;;;;;;;;;;5056127;28;20238;-67
2023/09/08 01:52:18;;;;;;;15.07;9.03;;;;;;;;;;5056059;28;20435;-67
2023/09/08 01:54:43;;;;;;;19.42;10.77;;;;;;;;;;5056296;28;20013;-67
2023/09/08 01:57:08;;;;;;;14.83;9.90;;;;;;;;;;5056010;28;20035;-67
2023/09/08 01:59:33;;;;;;;13.80;8.53;;;;;;;;;;5055980;28;20468;-67
2023/09/08 02:01:58;;;;;;;13.20;8.07;;;;;;;;;;5038106;28;20246;-67
2023/09/08 02:04:24;;;;;;;12.90;8.10;;;;;;;;;;5055845;28;20250;-67
2023/09/08 02:06:49;;;;;;;11.73;7.53;;;;;;;;;;5037518;28;20274;-67
2023/09/08 02:09:14;;;;;;;12.50;8.23;;;;;;;;;;5055799;28;20468;-67
2023/09/08 02:11:39;;;;;;;15.13;8.38;;;;;;;;;;5056001;28;20013;-67
2023/09/08 02:14:05;;;;;;;13.02;8.60;;;;;;;;;;5055730;28;20017;-67
2023/09/08 02:16:30;;;;;;;14.00;8.13;;;;;;;;;;5055889;28;20055;-67
2023/09/08 02:18:55;;;;;;;14.07;8.00;;;;;;;;;;5055617;28;20095;-67
2023/09/08 02:21:21;;;;;;;15.33;9.40;;;;;;;;;;5055602;28;20475;-67
2023/09/08 02:23:46;;;;;;;19.52;9.27;;;;;;;;;;5055529;28;20029;-67
2023/09/08 02:26:11;;;;;;;14.83;7.97;;;;;;;;;;5055432;28;20033;-67
2023/09/08 02:28:36;;;;;;;17.92;8.45;;;;;;;;;;5055445;28;20040;-67
2023/09/08 02:31:02;;;;;;;24.43;8.60;;;;;;;;;;5055347;28;20063;-67
2023/09/08 02:33:27;;;;;;;18.07;8.63;;;;;;;;;;5055324;28;20062;-67
2023/09/08 02:35:52;;;;;;;13.03;8.33;;;;;;;;;;5055310;28;20269;-67
2023/09/08 02:38:17;;;;;;;14.32;9.35;;;;;;;;;;5055443;28;20254;-67
2023/09/08 02:40:43;;;;;;;14.97;9.10;;;;;;;;;;5055222;28;20017;-67
2023/09/08 02:43:08;;;;;;;14.18;7.95;;;;;;;;;;5055160;28;20063;-67
2023/09/08 02:45:33;;;;;;;12.87;8.03;;;;;;;;;;5055161;28;20381;-67
2023/09/08 02:47:58;;;;;;;14.87;9.10;;;;;;;;;;5054986;28;20026;-67
2023/09/08 02:50:23;;;;;;;13.77;8.33;;;;;;;;;;5055049;28;20056;-67
2023/09/08 02:52:49;;;;;;;14.77;9.63;;;;;;;;;;5055004;28;20147;-67
2023/09/08 02:55:14;;;;;;;13.45;8.35;;;;;;;;;;5054901;28;20361;-67
2023/09/08 02:57:39;;;;;;;18.13;8.90;;;;;;;;;;5054938;28;20021;-67
2023/09/08 03:00:07;;;;;;;16.30;9.00;;;;;;;;;;5054830;28;20103;-67
2023/09/08 03:02:32;;;;;;;20.50;9.13;;;;;;;;;;5054708;28;20250;-67
2023/09/08 03:04:58;;;;;;;13.25;7.70;;;;;;;;;;5054661;28;20083;-67
2023/09/08 03:07:23;;;;;;;14.85;8.18;;;;;;;;;;5054575;28;20096;-67
2023/09/08 03:09:48;;;;;;;13.20;8.63;;;;;;;;;;5054659;28;20024;-67
2023/09/08 03:12:14;;;;;;;12.40;8.07;;;;;;;;;;5054542;28;20325;-67
2023/09/08 03:14:39;;;;;;;12.80;7.82;;;;;;;;;;5054456;28;20254;-67
2023/09/08 03:17:04;;;;;;;16.97;8.40;;;;;;;;;;5035849;28;20056;-67
2023/09/08 03:19:30;;;;;;;16.10;8.43;;;;;;;;;;5054680;28;20128;-67
2023/09/08 03:21:55;;;;;;;13.13;7.95;;;;;;;;;;5054365;28;20024;-67
2023/09/08 03:24:20;;;;;;;19.67;7.93;;;;;;;;;;5054360;28;20032;-67
2023/09/08 03:26:45;;;;;;;16.87;10.60;;;;;;;;;;5054281;28;20021;-67
2023/09/08 03:29:10;;;;;;;17.10;9.97;;;;;;;;;;5054246;28;20579;-67
2023/09/08 03:31:36;;;;;;;15.80;9.40;;;;;;;;;;5054073;28;20045;-67
2023/09/08 03:34:01;;;;;;;15.48;9.15;;;;;;;;;;5054418;28;20250;-67
2023/09/08 03:36:26;;;;;;;14.40;9.00;;;;;;;;;;5054340;28;20464;-67
2023/09/08 03:38:52;;;;;;;13.37;8.53;;;;;;;;;;5054064;28;20029;-67
2023/09/08 03:41:17;;;;;;;20.23;9.83;;;;;;;;;;5054135;28;20649;-75
2023/09/08 03:43:42;;;;;;;12.37;8.97;;;;;;;;;;5053979;28;20538;-75
2023/09/08 03:46:07;;;;;;;13.87;8.10;;;;;;;;;;5053900;28;20032;-75
2023/09/08 03:48:32;;;;;;;19.10;9.70;;;;;;;;;;5053974;28;20033;-75
2023/09/08 03:50:58;;;;;;;13.93;9.23;;;;;;;;;;5053851;28;20052;-75
2023/09/08 03:53:23;;;;;;;22.88;9.85;;;;;;;;;;5053847;28;20375;-75
2023/09/08 03:55:48;;;;;;;18.40;9.38;;;;;;;;;;5053687;28;20043;-75
2023/09/08 03:58:13;;;;;;;17.40;8.93;;;;;;;;;;5053787;28;20036;-75
2023/09/08 04:00:39;;;;;;;14.27;8.80;;;;;;;;;;5053695;28;20021;-75
2023/09/08 04:03:04;;;;;;;13.40;8.80;;;;;;;;;;5053727;28;20242;-75
2023/09/08 04:05:29;;;;;;;15.73;9.40;;;;;;;;;;5053622;28;20252;-75
2023/09/08 04:07:54;;;;;;;17.08;8.98;;;;;;;;;;5053512;28;20480;-75
2023/09/08 04:10:20;;;;;;;13.00;8.60;;;;;;;;;;5053751;28;20444;-76
2023/09/08 04:12:45;;;;;;;13.38;8.32;;;;;;;;;;5053513;28;20024;-75
2023/09/08 04:15:10;;;;;;;16.73;8.40;;;;;;;;;;5053532;28;20427;-75
2023/09/08 04:17:36;;;;;;;17.07;10.00;;;;;;;;;;5053507;28;20550;-75
2023/09/08 04:20:04;;;;;;;15.93;9.60;;;;;;;;;;5053382;28;20025;-75
2023/09/08 04:22:30;;;;;;;13.35;8.05;;;;;;;;;;5053376;28;20045;-75
2023/09/08 04:24:56;;;;;;;14.50;9.00;;;;;;;;;;5053290;28;20056;-75
2023/09/08 04:27:21;;;;;;;14.48;9.20;;;;;;;;;;5053232;28;20313;-75
2023/09/08 04:29:46;;;;;;;15.90;9.87;;;;;;;;;;5052969;28;20477;-75
2023/09/08 04:32:11;;;;;;;15.43;8.90;;;;;;;;;;5053179;28;20074;-74
2023/09/08 04:34:38;;;;;;;18.70;10.03;;;;;;;;;;5053270;28;20066;-74
2023/09/08 04:37:03;;;;;;;16.35;10.10;;;;;;;;;;5053193;28;20477;-75
2023/09/08 04:39:28;;;;;;;18.27;8.80;;;;;;;;;;5053118;28;20027;-75
2023/09/08 04:41:53;;;;;;;16.30;9.07;;;;;;;;;;5053104;28;20713;-75
2023/09/08 04:44:19;;;;;;;16.60;8.50;;;;;;;;;;5053153;28;20754;-75
2023/09/08 04:46:45;;;;;;;17.50;9.20;;;;;;;;;;5053049;28;20025;-75
2023/09/08 04:49:10;;;;;;;15.52;9.07;;;;;;;;;;5053026;28;20021;-75
2023/09/08 04:51:36;;;;;;;16.27;8.80;;;;;;;;;;5053142;28;20014;-67
2023/09/08 04:54:01;;;;;;;13.53;7.63;;;;;;;;;;5053019;28;20017;-67
2023/09/08 04:56:26;;;;;;;17.50;8.50;;;;;;;;;;5052993;28;20017;-67
2023/09/08 04:58:52;;;;;;;21.63;9.33;;;;;;;;;;5053030;28;20053;-67
2023/09/08 05:01:17;;;;;;;15.85;9.88;;;;;;;;;;5053197;28;20108;-67
2023/09/08 05:03:43;;;;;;;14.27;8.65;;;;;;;;;;5052933;28;20053;-67
2023/09/08 05:06:08;;;;;;;16.58;9.07;;;;;;;;;;5053020;28;20032;-67
2023/09/08 05:08:33;;;;;;;17.10;10.43;;;;;;;;;;5052974;28;20413;-67
2023/09/08 05:10:58;;;;;;;13.43;8.80;;;;;;;;;;5052869;28;20013;-67
2023/09/08 05:13:26;;;;;;;16.23;9.55;;;;;;;;;;5052850;28;20020;-67
2023/09/08 05:15:52;;;;;;;15.02;9.35;;;;;;;;;;5052843;28;20021;-67
2023/09/08 05:18:17;;;;;;;18.38;9.55;;;;;;;;;;5052780;28;20088;-67
2023/09/08 05:20:42;;;;;;;15.60;9.77;;;;;;;;;;5052779;28;20056;-67
2023/09/08 05:23:08;;;;;;;18.33;9.10;;;;;;;;;;5052773;28;20253;-67
2023/09/08 05:25:33;;;;;;;15.10;9.13;;;;;;;;;;5052762;28;20036;-67
2023/09/08 05:27:58;;;;;;;17.90;9.33;;;;;;;;;;5052597;28;20274;-67
2023/09/08 05:30:23;;;;;;;18.17;9.63;;;;;;;;;;5052622;28;20061;-67
2023/09/08 05:32:48;;;;;;;15.87;8.73;;;;;;;;;;5052640;28;20021;-67
2023/09/08 05:35:14;;;;;;;15.10;8.73;;;;;;;;;;5052621;28;20633;-67
2023/09/08 05:37:39;;;;;;;19.33;9.55;;;;;;;;;;5052579;28;20257;-67
2023/09/08 05:40:05;;;;;;;14.88;9.05;;;;;;;;;;5053347;28;20033;-67
2023/09/08 05:42:30;;;;;;;19.00;10.20;;;;;;;;;;5056305;28;20020;-68
2023/09/08 05:44:55;;;;;;;13.77;8.33;;;;;;;;;;5056309;28;20028;-68
2023/09/08 05:47:20;;;;;;;21.40;8.53;;;;;;;;;;5056121;28;20020;-69
2023/09/08 05:49:45;;;;;;;13.83;9.30;;;;;;;;;;5056199;28;20021;-69
2023/09/08 05:52:11;;;;;;;11.70;7.80;;;;;;;;;;5056178;28;20246;-70
2023/09/08 05:54:36;;;;;;;12.13;7.73;;;;;;;;;;5056061;28;20028;-70
2023/09/08 05:57:01;;;;;;;12.73;8.20;;;;;;;;;;5056057;28;20044;-70
2023/09/08 05:59:26;;;;;;;13.00;7.87;;;;;;;;;;5056060;28;20472;-70
2023/09/08 06:01:51;;;;;;;18.17;8.40;;;;;;;;;;5056009;28;20021;-70
2023/09/08 06:04:17;;;;;;;15.57;8.20;;;;;;;;;;5055941;28;20700;-70
2023/09/08 06:06:42;;;;;;;14.20;8.77;;;;;;;;;;5055827;28;20864;-70
2023/09/08 06:09:08;;;;;;;22.13;9.27;;;;;;;;;;5055839;28;20062;-70
2023/09/08 06:11:34;;;;;;;12.52;8.45;;;;;;;;;;5055983;28;20575;-70
2023/09/08 06:13:59;;;;;;;16.17;8.65;;;;;;;;;;5055688;28;20016;-70
2023/09/08 06:16:25;;;;;;;20.15;8.43;;;;;;;;;;5055673;28;20028;-70
2023/09/08 06:18:50;;;;;;;16.20;8.65;;;;;;;;;;5055603;28;20025;-70
2023/09/08 06:21:15;;;;;;;13.93;8.43;;;;;;;;;;5055579;28;20043;-70
2023/09/08 06:23:41;;;;;;;18.23;8.67;;;;;;;;;;5055594;28;20250;-70
2023/09/08 06:26:06;;;;;;;19.10;8.90;;;;;;;;;;5055421;28;20017;-70
2023/09/08 06:28:31;;;;;;;16.63;8.23;;;;;;;;;;5055450;28;20021;-71
2023/09/08 06:30:56;;;;;;;16.35;7.53;;;;;;;;;;5055105;28;20049;-71
2023/09/08 06:33:25;;;;;;;13.95;8.38;;;;;;;;;;5055329;28;20067;-71
2023/09/08 06:35:50;;;;;;;15.93;7.60;;;;;;;;;;5055449;28;20469;-71
2023/09/08 06:38:16;;;;;;;16.10;8.30;;;;;;;;;;5055299;28;20017;-71
2023/09/08 06:40:41;;;;;;;18.27;7.20;;;;;;;;;;5055248;28;20021;-71
2023/09/08 06:43:06;;;;;;;14.07;7.53;;;;;;;;;;5055409;28;20047;-71
2023/09/08 06:45:31;;;;;;;13.50;7.40;;;;;;;;;;5055120;28;20013;-71
2023/09/08 06:47:57;;;;;;;15.90;7.20;;;;;;;;;;5037126;28;20398;-71
2023/09/08 06:50:22;;;;;;;22.23;8.30;;;;;;;;;;5054928;28;20017;-71
2023/09/08 06:52:50;;;;;;;10.77;6.88;;;;;;;;;;5053801;28;20071;-71
2023/09/08 06:55:16;;;;;;;9.95;6.15;;;;;;;;;;5055188;28;20021;-72
2023/09/08 06:57:42;;;;;;;17.52;7.22;;;;;;;;;;5054919;28;20020;-72
2023/09/08 07:00:07;;;;;;;11.20;6.00;;;;;;;;;;5054838;28;20380;-72
2023/09/08 07:02:33;;;;;;;15.63;6.60;;;;;;;;;;5055070;28;20036;-71
2023/09/08 07:04:58;;;;;;;12.85;6.18;;;;;;;;;;5054703;28;20550;-72
2023/09/08 07:07:23;;;;;;;13.77;6.63;;;;;;;;;;5054653;28;20039;-72
2023/09/08 07:09:48;;;;;;;11.57;5.67;;;;;;;;;;5054782;28;20013;-77
2023/09/08 07:12:14;;;;;;;11.33;5.93;;;;;;;;;;5054657;28;20100;-78
2023/09/08 07:14:39;;;;;;;10.70;6.55;;;;;;;;;;5054887;28;20020;-77
2023/09/08 07:17:04;;;;;;;8.63;6.03;;;;;;;;;;5054623;28;20071;-78
2023/09/08 07:19:29;;;;;;;14.35;5.88;;;;;;;;;;5054515;28;20025;-78
2023/09/08 07:21:55;;;;;;;13.10;6.37;;;;;;;;;;5054540;28;20025;-78
2023/09/08 07:24:20;;;;;;;17.08;5.50;;;;;;;;;;5054548;28;20070;-78
2023/09/08 07:26:45;;;;;;;15.18;6.45;;;;;;;;;;5054632;28;20020;-78
2023/09/08 07:29:11;;;;;;;8.40;5.93;;;;;;;;;;5054280;28;20116;-77
2023/09/08 07:31:38;;;;;;;10.52;5.93;;;;;;;;;;5054247;28;20060;-78
2023/09/08 07:34:03;;;;;;;13.10;6.50;;;;;;;;;;5054379;28;20484;-78
2023/09/08 07:36:28;;;;;;;10.77;6.40;;;;;;;;;;5054629;28;20017;-78
2023/09/08 07:38:54;;;;;;;11.63;6.45;;;;;;;;;;5054314;28;20740;-78
2023/09/08 07:41:19;;;;;;;14.60;6.10;;;;;;;;;;5054487;28;20017;-78
2023/09/08 07:43:45;;;;;;;10.53;6.20;;;;;;;;;;5054416;28;20017;-78
2023/09/08 07:46:10;;;;;;;8.57;5.78;;;;;;;;;;5054461;28;20096;-77
2023/09/08 07:48:36;;;;;;;9.03;5.70;;;;;;;;;;5054815;28;20079;-78
2023/09/08 07:51:01;;;;;;;11.60;5.78;;;;;;;;;;5054262;28;20266;-78
2023/09/08 07:53:26;;;;;;;9.10;5.68;;;;;;;;;;5036433;28;20047;-78
2023/09/08 07:55:52;;;;;;;10.05;5.63;;;;;;;;;;5054446;28;20025;-78
2023/09/08 07:58:17;;;;;;;8.47;5.20;;;;;;;;;;5054567;28;20380;-78
2023/09/08 08:00:42;;;;;;;14.33;6.00;;;;;;;;;;5054100;28;20238;-78
2023/09/08 08:03:08;;;;;;;11.63;6.07;;;;;;;;;;5053541;28;20013;-78
2023/09/08 08:05:33;;;;;;;12.73;6.47;;;;;;;;;;5053853;28;20095;-78
2023/09/08 08:07:59;;;;;;;8.57;5.32;;;;;;;;;;5053615;28;20412;-78
2023/09/08 08:10:24;;;;;;;9.70;6.00;;;;;;;;;;5053859;28;20017;-78
2023/09/08 08:12:49;;;;;;;8.90;5.72;;;;;;;;;;5053760;28;20808;-78
2023/09/08 08:15:15;;;;;;;10.33;6.20;;;;;;;;;;5054116;28;20028;-78
2023/09/08 08:17:40;;;;;;;13.32;5.65;;;;;;;;;;5053761;28;20250;-78
2023/09/08 08:20:06;;;;;;;11.52;5.40;;;;;;;;;;5053597;28;20029;-72
2023/09/08 08:22:32;;;;;;;8.18;5.80;;;;;;;;;;5053356;28;20049;-72
2023/09/08 08:24:57;;;;;;;9.63;5.78;;;;;;;;;;5053626;28;20358;-72
2023/09/08 08:27:23;;;;;;;6.63;4.70;;;;;;;;;;5053265;28;20028;-72
2023/09/08 08:29:48;;;;;;;7.50;5.17;;;;;;;;;;5053062;28;20021;-72
2023/09/08 08:32:13;;;;;;;8.90;5.53;;;;;;;;;;5053335;28;20108;-72
2023/09/08 08:34:38;;;;;;;12.23;5.20;;;;;;;;;;5053299;28;20376;-72
2023/09/08 08:37:04;;;;;;;15.48;5.68;;;;;;;;;;5053336;28;20016;-72
2023/09/08 08:39:29;;;;;;;10.97;5.43;;;;;;;;;;5053176;28;20020;-72
2023/09/08 08:41:54;;;;;;;9.83;5.20;;;;;;;;;;5053186;28;20496;-72
2023/09/08 08:44:20;;;;;;;11.23;5.10;;;;;;;;;;5053165;28;20102;-72
2023/09/08 08:46:46;;;;;;;9.70;4.75;;;;;;;;;;5052988;28;20753;-72
2023/09/08 08:49:14;;;;;;;8.18;5.43;;;;;;;;;;5053051;28;20487;-72
2023/09/08 08:51:39;;;;;;;8.18;5.63;;;;;;;;;;5053325;28;20396;-72
2023/09/08 08:54:05;;;;;;;8.43;5.88;;;;;;;;;;5053051;28;20017;-72
2023/09/08 08:56:31;;;;;;;8.18;5.53;;;;;;;;;;5053011;28;20013;-73
2023/09/08 08:58:57;;;;;;;8.90;5.18;;;;;;;;;;5053004;28;20512;-72
2023/09/08 09:01:24;;;;;;;8.95;5.68;;;;;;;;;;5053010;28;20032;-72
2023/09/08 09:03:50;;;;;;;10.55;6.20;;;;;;;;;;5052975;28;20013;-72
2023/09/08 09:06:15;;;;;;;12.60;6.10;;;;;;;;;;5052822;28;20039;-72
2023/09/08 09:08:42;;;;;;;10.93;5.97;;;;;;;;;;5052955;28;20025;-72
2023/09/08 09:11:08;;;;;;;7.53;5.03;;;;;;;;;;5052889;28;20031;-72
2023/09/08 09:13:33;;;;;;;8.33;5.60;;;;;;;;;;5052889;28;20041;-72
2023/09/08 09:15:59;;;;;;;11.13;6.20;;;;;;;;;;5055035;28;20067;-72
2023/09/08 09:18:26;;;;;;;11.73;6.57;;;;;;;;;;5056995;28;20036;-72
2023/09/08 09:20:55;;;;;;;12.13;5.97;;;;;;;;;;5056694;28;20021;-72
2023/09/08 09:23:30;;;;;;;13.38;6.22;;;;;;;;;;5056686;28;20066;-72
2023/09/08 09:25:55;;;;;;;10.15;5.88;;;;;;;;;;5056618;28;20021;-72
2023/09/08 09:28:20;;;;;;;8.18;5.68;;;;;;;;;;5056533;28;20151;-72
2023/09/08 09:30:54;;;;;;;6.83;5.27;;;;;;;;;;5056521;28;20049;-78
2023/09/08 09:33:20;;;;;;;6.78;4.68;;;;;;;;;;5056513;28;20009;-78
2023/09/08 09:35:47;;;;;;;7.40;5.85;;;;;;;;;;5056497;28;20028;-78
2023/09/08 09:38:13;;;;;;;8.18;5.10;;;;;;;;;;5056687;28;20025;-78
2023/09/08 09:40:38;;;;;;;10.43;6.15;;;;;;;;;;5056476;28;20358;-78
2023/09/08 09:43:04;;;;;;;7.60;5.28;;;;;;;;;;5056912;28;20082;-78
2023/09/08 09:45:30;;;;;;;7.57;5.30;;;;;;;;;;5056258;28;20108;-78
2023/09/08 09:47:55;;;;;;;7.30;5.50;;;;;;;;;;5056153;28;20100;-78
2023/09/08 09:50:33;;;;;;;9.23;5.95;;;;;;;;;;5056237;28;20017;-77
2023/09/08 09:53:00;;;;;;;10.10;5.55;;;;;;;;;;5056399;28;20023;-78
2023/09/08 09:55:25;;;;;;;9.60;5.60;;;;;;;;;;5056096;28;20009;-78
2023/09/08 09:57:52;;;;;;;9.60;5.38;;;;;;;;;;5056086;28;20017;-78
2023/09/08 10:00:19;;;;;;;10.00;5.57;;;;;;;;;;5055949;28;20032;-77
2023/09/08 10:02:44;;;;;;;9.38;5.30;;;;;;;;;;5055913;28;20025;-77
2023/09/08 10:05:11;;;;;;;12.02;5.28;;;;;;;;;;5055925;28;20054;-77
2023/09/08 10:07:37;;;;;;;8.80;5.05;;;;;;;;;;5055731;28;20032;-78
2023/09/08 10:10:05;;;;;;;8.00;5.82;;;;;;;;;;5055778;28;20021;-78
2023/09/08 10:12:31;;;;;;;10.10;5.75;;;;;;;;;;5037938;28;20024;-78
2023/09/08 10:14:57;;;;;;;9.60;5.53;;;;;;;;;;5055741;28;20021;-79
2023/09/08 10:17:25;;;;;;;8.73;5.53;;;;;;;;;;5055714;28;20377;-78
2023/09/08 10:19:51;;;;;;;8.00;5.72;;;;;;;;;;5055624;28;20029;-78
2023/09/08 10:22:19;;;;;;;8.48;6.10;;;;;;;;;;5055588;28;20025;-78
2023/09/08 10:24:46;;;;;;;7.22;5.20;;;;;;;;;;5055581;28;20028;-78
2023/09/08 10:27:11;;;;;;;12.52;5.95;;;;;;;;;;5055186;28;20431;-77
2023/09/08 10:29:37;;;;;;;15.02;6.05;;;;;;;;;;5055228;28;20024;-77
2023/09/08 10:32:03;;;;;;;7.18;5.47;;;;;;;;;;5055404;28;20045;-78
2023/09/08 10:34:30;;;;;;;8.18;5.22;;;;;;;;;;5055334;28;20020;-78
2023/09/08 10:36:55;;;;;;;8.93;5.35;;;;;;;;;;5055329;28;20013;-78
2023/09/08 10:39:28;;;;;;;8.38;5.32;;;;;;;;;;5055289;28;20029;-78
2023/09/08 10:42:13;;;;;;;9.82;5.60;;;;;;;;;;5055534;28;20017;-71
2023/09/08 10:44:38;;;;;;;7.80;5.15;;;;;;;;;;5054998;28;20118;-71
2023/09/08 10:47:04;;;;;;;11.70;5.93;;;;;;;;;;5055058;28;20025;-71
2023/09/08 10:49:34;;;;;;;8.00;6.10;;;;;;;;;;5055030;28;20013;-71
2023/09/08 10:52:09;;;;;;;10.23;6.03;;;;;;;;;;5055084;28;20488;-71
2023/09/08 10:54:44;;;;;;;10.95;6.20;;;;;;;;;;5055061;28;20013;-71
2023/09/08 10:57:13;;;;;;;13.68;6.00;;;;;;;;;;5054990;28;20025;-71
2023/09/08 10:59:38;;;;;;;9.02;5.63;;;;;;;;;;5054827;28;20075;-71
2023/09/08 11:02:04;;;;;;;9.45;6.30;;;;;;;;;;5054825;28;20043;-71
2023/09/08 11:04:29;;;;;;;9.25;6.43;;;;;;;;;;5054762;28;20095;-71
2023/09/08 11:06:56;;;;;;;10.02;5.85;;;;;;;;;;5054628;28;20041;-71
2023/09/08 11:09:23;;;;;;;6.93;5.47;;;;;;;;;;5054743;28;20469;-70
2023/09/08 11:11:48;;;;;;;8.65;5.70;;;;;;;;;;5054891;28;20520;-70
2023/09/08 11:14:14;;;;;;;9.63;6.15;;;;;;;;;;5054519;28;20184;-70
2023/09/08 11:16:39;;;;;;;7.97;5.60;;;;;;;;;;5054620;28;20021;-70
2023/09/08 11:19:04;;;;;;;7.43;5.50;;;;;;;;;;5054598;28;20196;-70
2023/09/08 11:21:34;;;;;;;9.13;6.30;;;;;;;;;;5054480;28;20095;-70
2023/09/08 11:24:00;;;;;;;6.95;5.43;;;;;;;;;;5054692;28;20024;-70
2023/09/08 11:26:26;;;;;;;11.73;5.40;;;;;;;;;;5054326;28;20024;-70
2023/09/08 11:28:53;;;;;;;7.88;5.05;;;;;;;;;;5054169;28;20017;-70
2023/09/08 11:31:18;;;;;;;10.15;5.90;;;;;;;;;;5054166;28;20083;-70
2023/09/08 11:33:43;;;;;;;10.30;5.95;;;;;;;;;;5054262;28;20488;-70
2023/09/08 11:36:15;;;;;;;7.57;5.37;;;;;;;;;;5054213;28;20025;-70
2023/09/08 11:38:42;;;;;;;6.63;5.10;;;;;;;;;;5035650;28;20025;-70
2023/09/08 11:41:07;;;;;;;8.55;5.75;;;;;;;;;;5054166;28;20067;-70
2023/09/08 11:43:34;;;;;;;6.75;4.97;;;;;;;;;;5054058;28;20508;-70
2023/09/08 11:45:59;;;;;;;7.57;5.55;;;;;;;;;;5053960;28;20036;-70
2023/09/08 11:48:25;;;;;;;9.40;5.68;;;;;;;;;;5053876;28;20013;-70
2023/09/08 11:50:53;;;;;;;10.25;6.50;;;;;;;;;;5053968;28;20461;-70
2023/09/08 11:53:19;;;;;;;8.65;5.22;;;;;;;;;;5053876;28;20099;-70
2023/09/08 11:55:44;;;;;;;7.60;5.50;;;;;;;;;;5053875;28;20017;-70
2023/09/08 11:58:09;;;;;;;11.37;5.50;;;;;;;;;;5053868;28;20017;-70
2023/09/08 12:00:37;;;;;;;7.28;5.80;;;;;;;;;;5053800;28;20242;-70
2023/09/08 12:03:09;;;;;;;9.88;5.40;;;;;;;;;;5053693;28;20025;-70
2023/09/08 12:05:35;;;;;;;8.07;5.55;;;;;;;;;;5054157;28;20111;-70
2023/09/08 12:08:04;;;;;;;12.65;5.22;;;;;;;;;;5053516;28;20109;-70
2023/09/08 12:10:30;;;;;;;8.60;5.10;;;;;;;;;;5053605;28;20016;-70
2023/09/08 12:12:58;;;;;;;8.20;5.83;;;;;;;;;;5053579;28;20059;-70
2023/09/08 12:15:31;;;;;;;9.05;5.68;;;;;;;;;;5053510;28;20238;-70
2023/09/08 12:17:57;;;;;;;9.98;5.10;;;;;;;;;;5053665;28;20488;-70
2023/09/08 12:20:22;;;;;;;10.40;5.87;;;;;;;;;;5053469;28;20078;-70
2023/09/08 12:22:49;;;;;;;11.57;5.53;;;;;;;;;;5053442;28;20017;-70
2023/09/08 12:25:14;;;;;;;11.02;5.80;;;;;;;;;;5035491;28;20056;-70
2023/09/08 12:27:39;;;;;;;15.63;5.40;;;;;;;;;;5053295;28;20048;-70
2023/09/08 12:30:05;;;;;;;9.60;5.20;;;;;;;;;;5053041;28;20297;-70
2023/09/08 12:32:31;;;;;;;10.25;5.82;;;;;;;;;;5053292;28;20024;-70
2023/09/08 12:34:57;;;;;;;13.75;6.38;;;;;;;;;;5053468;28;20017;-70
2023/09/08 12:37:23;;;;;;;12.27;6.40;;;;;;;;;;5053260;28;20404;-70
2023/09/08 12:39:49;;;;;;;11.55;5.45;;;;;;;;;;5053406;28;20021;-70
2023/09/08 12:42:14;;;;;;;10.95;6.22;;;;;;;;;;5053214;28;20021;-70
2023/09/08 12:44:40;;;;;;;11.07;5.65;;;;;;;;;;5053170;28;20031;-70
2023/09/08 12:47:06;;;;;;;8.13;5.43;;;;;;;;;;5053062;28;20108;-70
2023/09/08 12:49:31;;;;;;;11.30;5.75;;;;;;;;;;5054424;28;20040;-70
2023/09/08 12:51:56;;;;;;;11.33;5.70;;;;;;;;;;5057305;28;20362;-70
2023/09/08 12:54:21;;;;;;;11.93;6.03;;;;;;;;;;5057289;28;20013;-70
2023/09/08 12:56:46;;;;;;;9.57;5.57;;;;;;;;;;5057429;28;20025;-70
2023/09/08 12:59:12;;;;;;;7.83;5.67;;;;;;;;;;5057150;28;20048;-70
2023/09/08 13:01:37;;;;;;;6.90;4.87;;;;;;;;;;5057273;28;20033;-76
2023/09/08 13:04:03;;;;;;;8.50;5.67;;;;;;;;;;5057062;28;20028;-77
2023/09/08 13:06:28;;;;;;;7.80;4.88;;;;;;;;;;5057195;28;20025;-77
2023/09/08 13:08:53;;;;;;;12.00;5.33;;;;;;;;;;5056988;28;20444;-77
2023/09/08 13:11:19;;;;;;;9.00;4.90;;;;;;;;;;5057175;28;20529;-77
2023/09/08 13:13:44;;;;;;;9.05;5.25;;;;;;;;;;5056878;28;20127;-77
2023/09/08 13:16:09;;;;;;;10.27;5.83;;;;;;;;;;5057146;28;20017;-77
2023/09/08 13:18:38;;;;;;;9.60;6.00;;;;;;;;;;5056842;28;20020;-77
2023/09/08 13:21:03;;;;;;;9.55;5.72;;;;;;;;;;5056739;28;20029;-77
2023/09/08 13:23:28;;;;;;;10.20;6.50;;;;;;;;;;5057002;28;20027;-77
2023/09/08 13:25:53;;;;;;;9.60;5.93;;;;;;;;;;5056711;28;20296;-77
2023/09/08 13:28:19;;;;;;;7.77;4.97;;;;;;;;;;5056551;28;20079;-77
2023/09/08 13:30:44;;;;;;;11.67;5.90;;;;;;;;;;5056424;28;20084;-77
2023/09/08 13:33:09;;;;;;;12.77;5.57;;;;;;;;;;5056614;28;20455;-76
2023/09/08 13:35:34;;;;;;;8.85;5.55;;;;;;;;;;5056764;28;20016;-77
2023/09/08 13:38:00;;;;;;;9.90;5.30;;;;;;;;;;5056706;28;20029;-76
2023/09/08 13:40:25;;;;;;;11.33;5.50;;;;;;;;;;5056473;28;20406;-77
2023/09/08 13:42:50;;;;;;;11.60;5.35;;;;;;;;;;5056346;28;20362;-77
2023/09/08 13:45:16;;;;;;;9.20;5.53;;;;;;;;;;5056557;28;20074;-77
2023/09/08 13:47:41;;;;;;;8.13;5.43;;;;;;;;;;5056271;28;20108;-75
2023/09/08 13:50:06;;;;;;;9.03;5.70;;;;;;;;;;5056303;28;20431;-77
2023/09/08 13:52:31;;;;;;;11.68;5.38;;;;;;;;;;5056180;28;20280;-77
2023/09/08 13:54:57;;;;;;;8.07;4.97;;;;;;;;;;5056144;28;20051;-77
2023/09/08 13:57:25;;;;;;;9.67;5.97;;;;;;;;;;5056071;28;20277;-77
2023/09/08 13:59:50;;;;;;;8.95;5.00;;;;;;;;;;5056317;28;20025;-76
2023/09/08 14:02:15;;;;;;;11.50;5.53;;;;;;;;;;5055389;28;20125;-76
2023/09/08 14:04:41;;;;;;;9.27;5.10;;;;;;;;;;5056227;28;20238;-76
2023/09/08 14:07:07;;;;;;;12.65;5.45;;;;;;;;;;5055886;28;20033;-77
2023/09/08 14:09:32;;;;;;;11.30;6.20;;;;;;;;;;5055953;28;20403;-70
2023/09/08 14:11:57;;;;;;;11.43;6.10;;;;;;;;;;5055807;28;20245;-70
2023/09/08 14:14:24;;;;;;;10.70;5.40;;;;;;;;;;5055816;28;20070;-69
2023/09/08 14:16:49;;;;;;;15.10;6.57;;;;;;;;;;5055655;28;20274;-69
2023/09/08 14:19:14;;;;;;;10.23;5.83;;;;;;;;;;5055743;28;20067;-69
2023/09/08 14:21:39;;;;;;;11.60;6.13;;;;;;;;;;5055731;28;20257;-70
2023/09/08 14:24:05;;;;;;;16.67;5.87;;;;;;;;;;5055577;28;20017;-69